sensor_id;sensor_type;location;lat;lon;timestamp;temperature;humidity
827;DHT22;395;48.132;11.608;2023-02-15T00:01:31;3.90;4.40
827;DHT22;395;48.132;11.608;2023-02-15T00:03:57;3.80;4.40
827;DHT22;395;48.132;11.608;2023-02-15T00:06:23;3.90;4.40
827;DHT22;395;48.132;11.608;2023-02-15T00:08:49;3.90;4.20
827;DHT22;395;48.132;11.608;2023-02-15T00:11:17;3.90;4.10
827;DHT22;395;48.132;11.608;2023-02-15T00:14:04;3.90;4.10
827;DHT22;395;48.132;11.608;2023-02-15T00:16:30;3.90;4.10
827;DHT22;395;48.132;11.608;2023-02-15T00:18:55;3.90;4.10
827;DHT22;395;48.132;11.608;2023-02-15T00:21:21;3.90;4.10
827;DHT22;395;48.132;11.608;2023-02-15T00:23:49;3.90;4.10
827;DHT22;395;48.132;11.608;2023-02-15T00:26:15;3.80;3.80
827;DHT22;395;48.132;11.608;2023-02-15T00:28:40;3.80;3.70
827;DHT22;395;48.132;11.608;2023-02-15T00:31:10;3.80;3.60
827;DHT22;395;48.132;11.608;2023-02-15T00:33:37;3.80;3.60
827;DHT22;395;48.132;11.608;2023-02-15T00:36:05;3.80;3.40
827;DHT22;395;48.132;11.608;2023-02-15T00:38:32;3.80;3.20
827;DHT22;395;48.132;11.608;2023-02-15T00:40:59;3.80;3.20
827;DHT22;395;48.132;11.608;2023-02-15T00:43:27;3.70;3.10
827;DHT22;395;48.132;11.608;2023-02-15T00:45:52;3.70;3.00
827;DHT22;395;48.132;11.608;2023-02-15T00:48:18;3.80;3.10
827;DHT22;395;48.132;11.608;2023-02-15T00:50:48;3.70;3.10
827;DHT22;395;48.132;11.608;2023-02-15T00:53:14;3.70;3.00
827;DHT22;395;48.132;11.608;2023-02-15T00:55:41;3.70;3.00
827;DHT22;395;48.132;11.608;2023-02-15T00:58:08;3.70;3.00
827;DHT22;395;48.132;11.608;2023-02-15T01:00:34;3.70;3.00
827;DHT22;395;48.132;11.608;2023-02-15T01:03:00;3.70;3.10
827;DHT22;395;48.132;11.608;2023-02-15T01:05:26;3.70;3.30
827;DHT22;395;48.132;11.608;2023-02-15T01:07:51;3.70;3.20
827;DHT22;395;48.132;11.608;2023-02-15T01:10:17;3.70;3.30
827;DHT22;395;48.132;11.608;2023-02-15T01:12:43;3.70;3.00
827;DHT22;395;48.132;11.608;2023-02-15T01:15:09;3.70;2.80
827;DHT22;395;48.132;11.608;2023-02-15T01:17:35;3.70;2.80
827;DHT22;395;48.132;11.608;2023-02-15T01:20:01;3.80;2.70
827;DHT22;395;48.132;11.608;2023-02-15T01:22:26;3.70;2.60
827;DHT22;395;48.132;11.608;2023-02-15T01:24:52;3.70;2.60
827;DHT22;395;48.132;11.608;2023-02-15T01:27:18;3.70;2.50
827;DHT22;395;48.132;11.608;2023-02-15T01:29:44;3.70;2.60
827;DHT22;395;48.132;11.608;2023-02-15T01:32:09;3.70;2.60
827;DHT22;395;48.132;11.608;2023-02-15T01:34:35;3.70;2.50
827;DHT22;395;48.132;11.608;2023-02-15T01:37:01;3.70;2.50
827;DHT22;395;48.132;11.608;2023-02-15T01:39:26;3.70;2.40
827;DHT22;395;48.132;11.608;2023-02-15T01:41:52;3.70;2.40
827;DHT22;395;48.132;11.608;2023-02-15T01:47:32;3.60;2.30
827;DHT22;395;48.132;11.608;2023-02-15T01:50:15;3.60;2.50
827;DHT22;395;48.132;11.608;2023-02-15T01:53:07;3.50;2.30
827;DHT22;395;48.132;11.608;2023-02-15T01:55:38;3.60;2.30
827;DHT22;395;48.132;11.608;2023-02-15T01:58:04;3.50;2.60
827;DHT22;395;48.132;11.608;2023-02-15T02:00:32;3.50;2.60
827;DHT22;395;48.132;11.608;2023-02-15T02:02:58;3.50;2.60
827;DHT22;395;48.132;11.608;2023-02-15T02:05:25;3.50;2.40
827;DHT22;395;48.132;11.608;2023-02-15T02:07:52;3.50;2.30
827;DHT22;395;48.132;11.608;2023-02-15T02:10:22;3.50;2.40
827;DHT22;395;48.132;11.608;2023-02-15T02:12:57;3.50;2.60
827;DHT22;395;48.132;11.608;2023-02-15T02:18:23;3.50;2.30
827;DHT22;395;48.132;11.608;2023-02-15T02:21:00;3.50;2.30
827;DHT22;395;48.132;11.608;2023-02-15T02:26:44;3.40;2.00
827;DHT22;395;48.132;11.608;2023-02-15T02:34:22;3.40;2.00
827;DHT22;395;48.132;11.608;2023-02-15T02:36:59;3.40;2.00
827;DHT22;395;48.132;11.608;2023-02-15T02:39:54;3.30;2.10
827;DHT22;395;48.132;11.608;2023-02-15T02:45:28;3.30;2.40
827;DHT22;395;48.132;11.608;2023-02-15T02:48:05;3.40;2.60
827;DHT22;395;48.132;11.608;2023-02-15T02:50:31;3.30;2.70
827;DHT22;395;48.132;11.608;2023-02-15T02:52:58;3.40;2.80
827;DHT22;395;48.132;11.608;2023-02-15T02:58:24;3.40;2.80
827;DHT22;395;48.132;11.608;2023-02-15T03:00:57;3.40;2.70
827;DHT22;395;48.132;11.608;2023-02-15T03:03:37;3.40;2.70
827;DHT22;395;48.132;11.608;2023-02-15T03:06:11;3.40;2.50
827;DHT22;395;48.132;11.608;2023-02-15T03:08:42;3.40;2.50
827;DHT22;395;48.132;11.608;2023-02-15T03:11:09;3.40;2.50
827;DHT22;395;48.132;11.608;2023-02-15T03:13:36;3.40;2.50
827;DHT22;395;48.132;11.608;2023-02-15T03:16:04;3.40;2.50
827;DHT22;395;48.132;11.608;2023-02-15T03:19:35;3.40;2.40
827;DHT22;395;48.132;11.608;2023-02-15T03:21:56;3.30;2.40
827;DHT22;395;48.132;11.608;2023-02-15T03:24:39;3.30;2.40
827;DHT22;395;48.132;11.608;2023-02-15T03:27:11;3.30;2.50
827;DHT22;395;48.132;11.608;2023-02-15T03:29:38;3.30;2.70
827;DHT22;395;48.132;11.608;2023-02-15T03:32:07;3.30;2.80
827;DHT22;395;48.132;11.608;2023-02-15T03:34:33;3.30;2.80
827;DHT22;395;48.132;11.608;2023-02-15T03:37:10;3.30;2.80
827;DHT22;395;48.132;11.608;2023-02-15T03:40:03;3.30;3.00
827;DHT22;395;48.132;11.608;2023-02-15T03:42:53;3.30;2.80
827;DHT22;395;48.132;11.608;2023-02-15T03:45:25;3.30;3.00
827;DHT22;395;48.132;11.608;2023-02-15T03:47:54;3.30;3.00
827;DHT22;395;48.132;11.608;2023-02-15T03:50:30;3.30;3.00
827;DHT22;395;48.132;11.608;2023-02-15T03:53:17;3.40;2.90
827;DHT22;395;48.132;11.608;2023-02-15T03:55:49;3.40;2.80
827;DHT22;395;48.132;11.608;2023-02-15T03:58:15;3.40;2.80
827;DHT22;395;48.132;11.608;2023-02-15T04:01:03;3.40;2.80
827;DHT22;395;48.132;11.608;2023-02-15T04:03:57;3.30;2.70
827;DHT22;395;48.132;11.608;2023-02-15T04:06:24;3.30;2.80
827;DHT22;395;48.132;11.608;2023-02-15T04:08:50;3.30;2.90
827;DHT22;395;48.132;11.608;2023-02-15T04:11:34;3.30;3.00
827;DHT22;395;48.132;11.608;2023-02-15T04:13:59;3.40;3.00
827;DHT22;395;48.132;11.608;2023-02-15T04:16:45;3.30;3.00
827;DHT22;395;48.132;11.608;2023-02-15T04:19:10;3.30;3.10
827;DHT22;395;48.132;11.608;2023-02-15T04:21:54;3.30;3.00
827;DHT22;395;48.132;11.608;2023-02-15T04:24:38;3.40;3.60
827;DHT22;395;48.132;11.608;2023-02-15T04:27:23;3.40;3.00
827;DHT22;395;48.132;11.608;2023-02-15T04:29:48;3.40;2.80
827;DHT22;395;48.132;11.608;2023-02-15T04:32:15;3.40;2.80
827;DHT22;395;48.132;11.608;2023-02-15T04:34:40;3.40;3.10
827;DHT22;395;48.132;11.608;2023-02-15T04:37:06;3.40;2.80
827;DHT22;395;48.132;11.608;2023-02-15T04:39:32;3.40;2.80
827;DHT22;395;48.132;11.608;2023-02-15T04:41:57;3.40;2.70
827;DHT22;395;48.132;11.608;2023-02-15T04:44:24;3.40;2.80
827;DHT22;395;48.132;11.608;2023-02-15T04:46:49;3.40;2.70
827;DHT22;395;48.132;11.608;2023-02-15T04:49:15;3.40;2.70
827;DHT22;395;48.132;11.608;2023-02-15T04:51:41;3.40;2.90
827;DHT22;395;48.132;11.608;2023-02-15T04:54:06;3.40;2.90
827;DHT22;395;48.132;11.608;2023-02-15T04:56:32;3.50;3.00
827;DHT22;395;48.132;11.608;2023-02-15T04:59:00;3.50;2.90
827;DHT22;395;48.132;11.608;2023-02-15T05:01:25;3.50;2.90
827;DHT22;395;48.132;11.608;2023-02-15T05:03:51;3.50;2.90
827;DHT22;395;48.132;11.608;2023-02-15T05:06:17;3.50;2.80
827;DHT22;395;48.132;11.608;2023-02-15T05:08:43;3.50;2.80
827;DHT22;395;48.132;11.608;2023-02-15T05:11:08;3.50;2.70
827;DHT22;395;48.132;11.608;2023-02-15T05:13:34;3.50;2.70
827;DHT22;395;48.132;11.608;2023-02-15T05:16:00;3.50;2.80
827;DHT22;395;48.132;11.608;2023-02-15T05:18:25;3.50;2.40
827;DHT22;395;48.132;11.608;2023-02-15T05:20:51;3.50;2.30
827;DHT22;395;48.132;11.608;2023-02-15T05:23:17;3.50;2.30
827;DHT22;395;48.132;11.608;2023-02-15T05:25:50;3.50;2.30
827;DHT22;395;48.132;11.608;2023-02-15T05:28:36;3.50;2.20
827;DHT22;395;48.132;11.608;2023-02-15T05:31:14;3.40;2.20
827;DHT22;395;48.132;11.608;2023-02-15T05:33:41;3.40;2.10
827;DHT22;395;48.132;11.608;2023-02-15T05:36:07;3.40;2.20
827;DHT22;395;48.132;11.608;2023-02-15T05:38:33;3.40;2.40
827;DHT22;395;48.132;11.608;2023-02-15T05:40:59;3.40;2.40
827;DHT22;395;48.132;11.608;2023-02-15T05:43:25;3.40;2.40
827;DHT22;395;48.132;11.608;2023-02-15T05:45:53;3.40;2.30
827;DHT22;395;48.132;11.608;2023-02-15T05:48:20;3.40;2.30
827;DHT22;395;48.132;11.608;2023-02-15T05:50:46;3.50;2.10
827;DHT22;395;48.132;11.608;2023-02-15T05:53:21;3.40;2.00
827;DHT22;395;48.132;11.608;2023-02-15T05:55:47;3.40;2.20
827;DHT22;395;48.132;11.608;2023-02-15T05:58:12;3.40;2.20
827;DHT22;395;48.132;11.608;2023-02-15T06:00:39;3.40;2.10
827;DHT22;395;48.132;11.608;2023-02-15T06:03:05;3.40;2.10
827;DHT22;395;48.132;11.608;2023-02-15T06:05:30;3.40;2.20
827;DHT22;395;48.132;11.608;2023-02-15T06:07:56;3.40;2.20
827;DHT22;395;48.132;11.608;2023-02-15T06:10:21;3.40;2.20
827;DHT22;395;48.132;11.608;2023-02-15T06:12:47;3.40;2.10
827;DHT22;395;48.132;11.608;2023-02-15T06:15:13;3.40;2.00
827;DHT22;395;48.132;11.608;2023-02-15T06:17:41;3.40;1.80
827;DHT22;395;48.132;11.608;2023-02-15T06:20:08;3.40;1.60
827;DHT22;395;48.132;11.608;2023-02-15T06:22:34;3.40;1.50
827;DHT22;395;48.132;11.608;2023-02-15T06:24:59;3.40;1.40
827;DHT22;395;48.132;11.608;2023-02-15T06:27:25;3.40;1.20
827;DHT22;395;48.132;11.608;2023-02-15T06:29:51;3.30;1.00
827;DHT22;395;48.132;11.608;2023-02-15T06:32:16;3.30;1.00
827;DHT22;395;48.132;11.608;2023-02-15T06:34:42;3.30;1.00
827;DHT22;395;48.132;11.608;2023-02-15T06:37:07;3.30;1.00
827;DHT22;395;48.132;11.608;2023-02-15T06:39:33;3.30;1.00
827;DHT22;395;48.132;11.608;2023-02-15T06:41:59;3.30;1.10
827;DHT22;395;48.132;11.608;2023-02-15T06:44:25;3.30;1.20
827;DHT22;395;48.132;11.608;2023-02-15T06:46:51;3.30;1.10
827;DHT22;395;48.132;11.608;2023-02-15T06:49:16;3.30;1.00
827;DHT22;395;48.132;11.608;2023-02-15T06:51:42;3.40;1.00
827;DHT22;395;48.132;11.608;2023-02-15T06:54:08;3.40;1.00
827;DHT22;395;48.132;11.608;2023-02-15T06:56:33;3.30;1.00
827;DHT22;395;48.132;11.608;2023-02-15T06:58:59;3.30;1.10
827;DHT22;395;48.132;11.608;2023-02-15T07:01:25;3.40;1.30
827;DHT22;395;48.132;11.608;2023-02-15T07:03:50;3.30;1.00
827;DHT22;395;48.132;11.608;2023-02-15T07:06:16;3.30;1.00
827;DHT22;395;48.132;11.608;2023-02-15T07:08:42;3.30;1.00
827;DHT22;395;48.132;11.608;2023-02-15T07:11:07;3.30;1.00
827;DHT22;395;48.132;11.608;2023-02-15T07:13:52;3.30;1.00
827;DHT22;395;48.132;11.608;2023-02-15T07:16:19;3.30;1.00
827;DHT22;395;48.132;11.608;2023-02-15T07:18:45;3.30;1.00
827;DHT22;395;48.132;11.608;2023-02-15T07:21:10;3.20;1.00
827;DHT22;395;48.132;11.608;2023-02-15T07:23:37;3.30;1.00
827;DHT22;395;48.132;11.608;2023-02-15T07:26:04;3.40;1.00
827;DHT22;395;48.132;11.608;2023-02-15T07:28:31;3.30;1.00
827;DHT22;395;48.132;11.608;2023-02-15T07:30:57;3.40;1.00
827;DHT22;395;48.132;11.608;2023-02-15T07:33:23;3.40;1.00
827;DHT22;395;48.132;11.608;2023-02-15T07:35:54;3.40;1.00
827;DHT22;395;48.132;11.608;2023-02-15T07:38:20;3.40;1.00
827;DHT22;395;48.132;11.608;2023-02-15T07:40:47;3.40;1.00
827;DHT22;395;48.132;11.608;2023-02-15T07:43:13;3.40;1.00
827;DHT22;395;48.132;11.608;2023-02-15T07:45:39;3.40;1.00
827;DHT22;395;48.132;11.608;2023-02-15T07:48:06;3.40;1.00
827;DHT22;395;48.132;11.608;2023-02-15T07:50:32;3.40;1.00
827;DHT22;395;48.132;11.608;2023-02-15T07:52:58;3.50;1.00
827;DHT22;395;48.132;11.608;2023-02-15T07:55:24;3.50;1.00
827;DHT22;395;48.132;11.608;2023-02-15T07:57:51;3.50;1.00
827;DHT22;395;48.132;11.608;2023-02-15T08:00:19;3.50;1.00
827;DHT22;395;48.132;11.608;2023-02-15T08:02:54;3.50;1.00
827;DHT22;395;48.132;11.608;2023-02-15T08:05:43;3.50;1.00
827;DHT22;395;48.132;11.608;2023-02-15T08:08:09;3.50;1.00
827;DHT22;395;48.132;11.608;2023-02-15T08:16:46;3.50;1.00
827;DHT22;395;48.132;11.608;2023-02-15T08:19:21;3.60;1.00
827;DHT22;395;48.132;11.608;2023-02-15T08:21:52;3.60;1.00
827;DHT22;395;48.132;11.608;2023-02-15T08:24:20;3.60;1.00
827;DHT22;395;48.132;11.608;2023-02-15T08:26:47;3.60;1.00
827;DHT22;395;48.132;11.608;2023-02-15T08:29:14;3.60;1.00
827;DHT22;395;48.132;11.608;2023-02-15T08:31:40;3.70;1.00
827;DHT22;395;48.132;11.608;2023-02-15T08:34:08;3.70;1.00
827;DHT22;395;48.132;11.608;2023-02-15T08:36:34;3.70;1.00
827;DHT22;395;48.132;11.608;2023-02-15T08:39:02;3.70;1.00
827;DHT22;395;48.132;11.608;2023-02-15T08:41:31;3.80;1.00
827;DHT22;395;48.132;11.608;2023-02-15T08:43:59;3.80;1.00
827;DHT22;395;48.132;11.608;2023-02-15T08:46:27;3.80;1.00
827;DHT22;395;48.132;11.608;2023-02-15T08:48:54;3.80;1.00
827;DHT22;395;48.132;11.608;2023-02-15T08:51:25;3.80;1.00
827;DHT22;395;48.132;11.608;2023-02-15T08:53:53;4.00;1.00
827;DHT22;395;48.132;11.608;2023-02-15T08:56:26;3.80;1.00
827;DHT22;395;48.132;11.608;2023-02-15T08:58:53;3.80;1.00
827;DHT22;395;48.132;11.608;2023-02-15T09:01:24;3.80;1.00
827;DHT22;395;48.132;11.608;2023-02-15T09:03:54;3.80;1.00
827;DHT22;395;48.132;11.608;2023-02-15T09:06:21;3.80;1.00
827;DHT22;395;48.132;11.608;2023-02-15T09:08:47;3.90;1.00
827;DHT22;395;48.132;11.608;2023-02-15T09:11:16;3.90;1.00
827;DHT22;395;48.132;11.608;2023-02-15T09:13:51;3.90;1.00
827;DHT22;395;48.132;11.608;2023-02-15T09:16:17;3.90;1.00
827;DHT22;395;48.132;11.608;2023-02-15T09:18:43;3.90;1.00
827;DHT22;395;48.132;11.608;2023-02-15T09:21:12;4.00;1.00
827;DHT22;395;48.132;11.608;2023-02-15T09:23:44;4.00;1.00
827;DHT22;395;48.132;11.608;2023-02-15T09:26:12;4.00;1.00
827;DHT22;395;48.132;11.608;2023-02-15T09:28:39;4.00;1.00
827;DHT22;395;48.132;11.608;2023-02-15T09:33:35;4.00;1.00
827;DHT22;395;48.132;11.608;2023-02-15T09:36:03;4.00;1.00
827;DHT22;395;48.132;11.608;2023-02-15T09:38:29;4.00;1.00
827;DHT22;395;48.132;11.608;2023-02-15T10:14:43;4.70;1.00
827;DHT22;395;48.132;11.608;2023-02-15T10:28:56;4.90;1.00
827;DHT22;395;48.132;11.608;2023-02-15T10:31:29;4.90;1.00
827;DHT22;395;48.132;11.608;2023-02-15T10:39:22;5.00;1.00
827;DHT22;395;48.132;11.608;2023-02-15T10:56:12;5.30;1.00
827;DHT22;395;48.132;11.608;2023-02-15T10:58:48;5.30;1.00
827;DHT22;395;48.132;11.608;2023-02-15T11:06:53;5.50;1.00
827;DHT22;395;48.132;11.608;2023-02-15T11:09:22;5.50;1.00
827;DHT22;395;48.132;11.608;2023-02-15T11:11:52;5.60;1.00
827;DHT22;395;48.132;11.608;2023-02-15T11:17:12;5.60;1.00
827;DHT22;395;48.132;11.608;2023-02-15T11:19:56;5.60;1.00
827;DHT22;395;48.132;11.608;2023-02-15T11:22:24;5.70;1.00
827;DHT22;395;48.132;11.608;2023-02-15T11:24:50;5.80;1.00
827;DHT22;395;48.132;11.608;2023-02-15T11:27:22;5.80;1.00
827;DHT22;395;48.132;11.608;2023-02-15T11:32:38;5.80;1.40
827;DHT22;395;48.132;11.608;2023-02-15T11:35:20;5.90;1.20
827;DHT22;395;48.132;11.608;2023-02-15T11:38:03;5.90;1.10
827;DHT22;395;48.132;11.608;2023-02-15T11:40:53;5.90;1.00
827;DHT22;395;48.132;11.608;2023-02-15T11:43:56;5.90;1.30
827;DHT22;395;48.132;11.608;2023-02-15T11:46:24;6.00;1.40
827;DHT22;395;48.132;11.608;2023-02-15T11:48:50;6.00;1.60
827;DHT22;395;48.132;11.608;2023-02-15T11:51:17;6.00;1.70
827;DHT22;395;48.132;11.608;2023-02-15T11:53:45;6.00;1.60
827;DHT22;395;48.132;11.608;2023-02-15T11:56:16;6.10;1.70
827;DHT22;395;48.132;11.608;2023-02-15T11:58:53;6.10;1.70
827;DHT22;395;48.132;11.608;2023-02-15T12:01:35;6.10;1.70
827;DHT22;395;48.132;11.608;2023-02-15T12:04:19;6.10;1.70
827;DHT22;395;48.132;11.608;2023-02-15T12:06:55;6.10;1.70
827;DHT22;395;48.132;11.608;2023-02-15T12:12:26;6.20;1.80
827;DHT22;395;48.132;11.608;2023-02-15T12:15:03;6.20;1.80
827;DHT22;395;48.132;11.608;2023-02-15T12:17:33;6.20;1.80
827;DHT22;395;48.132;11.608;2023-02-15T12:22:38;6.30;1.90
827;DHT22;395;48.132;11.608;2023-02-15T12:25:25;6.30;2.40
827;DHT22;395;48.132;11.608;2023-02-15T12:27:52;6.30;2.30
827;DHT22;395;48.132;11.608;2023-02-15T12:30:25;6.30;2.30
827;DHT22;395;48.132;11.608;2023-02-15T12:32:53;6.40;2.70
827;DHT22;395;48.132;11.608;2023-02-15T12:35:31;6.40;2.50
827;DHT22;395;48.132;11.608;2023-02-15T12:40:36;6.40;2.40
827;DHT22;395;48.132;11.608;2023-02-15T12:43:03;6.50;2.60
827;DHT22;395;48.132;11.608;2023-02-15T12:45:35;6.50;3.00
827;DHT22;395;48.132;11.608;2023-02-15T12:48:12;6.60;2.80
827;DHT22;395;48.132;11.608;2023-02-15T12:50:40;6.60;2.80
827;DHT22;395;48.132;11.608;2023-02-15T12:53:32;6.50;2.80
827;DHT22;395;48.132;11.608;2023-02-15T12:56:03;6.60;3.10
827;DHT22;395;48.132;11.608;2023-02-15T12:58:34;6.60;2.90
827;DHT22;395;48.132;11.608;2023-02-15T13:06:17;6.70;3.40
827;DHT22;395;48.132;11.608;2023-02-15T13:08:48;6.70;3.80
827;DHT22;395;48.132;11.608;2023-02-15T13:11:21;6.70;3.70
827;DHT22;395;48.132;11.608;2023-02-15T13:14:13;6.70;3.70
827;DHT22;395;48.132;11.608;2023-02-15T13:16:41;6.70;3.50
827;DHT22;395;48.132;11.608;2023-02-15T13:19:39;6.80;4.30
827;DHT22;395;48.132;11.608;2023-02-15T13:22:10;6.80;5.20
827;DHT22;395;48.132;11.608;2023-02-15T13:24:43;6.80;5.00
827;DHT22;395;48.132;11.608;2023-02-15T13:27:16;6.80;5.20
827;DHT22;395;48.132;11.608;2023-02-15T13:29:46;6.90;6.10
827;DHT22;395;48.132;11.608;2023-02-15T13:32:33;6.90;6.50
827;DHT22;395;48.132;11.608;2023-02-15T13:35:03;7.00;6.50
827;DHT22;395;48.132;11.608;2023-02-15T13:37:36;7.00;7.00
827;DHT22;395;48.132;11.608;2023-02-15T13:40:28;7.10;6.70
827;DHT22;395;48.132;11.608;2023-02-15T13:48:59;7.20;5.70
827;DHT22;395;48.132;11.608;2023-02-15T13:51:54;7.30;5.60
827;DHT22;395;48.132;11.608;2023-02-15T14:02:43;7.40;5.70
827;DHT22;395;48.132;11.608;2023-02-15T14:14:05;7.50;5.50
827;DHT22;395;48.132;11.608;2023-02-15T14:16:54;7.50;5.50
827;DHT22;395;48.132;11.608;2023-02-15T14:22:38;7.60;5.00
827;DHT22;395;48.132;11.608;2023-02-15T14:25:46;7.60;5.10
827;DHT22;395;48.132;11.608;2023-02-15T14:28:21;7.60;5.20
827;DHT22;395;48.132;11.608;2023-02-15T14:30:53;7.60;5.10
827;DHT22;395;48.132;11.608;2023-02-15T14:35:55;7.70;4.90
827;DHT22;395;48.132;11.608;2023-02-15T14:46:52;7.90;4.90
827;DHT22;395;48.132;11.608;2023-02-15T14:49:24;8.00;4.80
827;DHT22;395;48.132;11.608;2023-02-15T14:59:27;8.10;4.00
827;DHT22;395;48.132;11.608;2023-02-15T15:02:17;8.10;3.90
827;DHT22;395;48.132;11.608;2023-02-15T15:04:58;8.10;3.80
827;DHT22;395;48.132;11.608;2023-02-15T15:07:27;8.10;3.60
827;DHT22;395;48.132;11.608;2023-02-15T15:12:49;8.10;3.40
827;DHT22;395;48.132;11.608;2023-02-15T15:18:00;8.00;3.00
827;DHT22;395;48.132;11.608;2023-02-15T15:25:45;8.10;3.60
827;DHT22;395;48.132;11.608;2023-02-15T15:37:23;8.00;3.00
827;DHT22;395;48.132;11.608;2023-02-15T15:40:17;8.10;3.00
827;DHT22;395;48.132;11.608;2023-02-15T15:43:10;8.00;3.00
827;DHT22;395;48.132;11.608;2023-02-15T15:48:29;8.00;2.50
827;DHT22;395;48.132;11.608;2023-02-15T15:51:33;8.00;2.50
827;DHT22;395;48.132;11.608;2023-02-15T15:54:01;8.00;2.50
827;DHT22;395;48.132;11.608;2023-02-15T15:56:30;8.00;2.40
827;DHT22;395;48.132;11.608;2023-02-15T15:59:05;8.00;2.40
827;DHT22;395;48.132;11.608;2023-02-15T16:01:43;7.90;2.30
827;DHT22;395;48.132;11.608;2023-02-15T16:04:22;8.00;2.20
827;DHT22;395;48.132;11.608;2023-02-15T16:06:48;7.90;2.00
827;DHT22;395;48.132;11.608;2023-02-15T16:09:20;7.90;2.50
827;DHT22;395;48.132;11.608;2023-02-15T16:11:49;7.90;1.90
827;DHT22;395;48.132;11.608;2023-02-15T16:14:36;7.80;1.90
827;DHT22;395;48.132;11.608;2023-02-15T16:17:04;7.80;1.90
827;DHT22;395;48.132;11.608;2023-02-15T16:19:34;7.70;1.70
827;DHT22;395;48.132;11.608;2023-02-15T16:22:02;7.70;1.80
827;DHT22;395;48.132;11.608;2023-02-15T16:28:05;7.60;1.60
827;DHT22;395;48.132;11.608;2023-02-15T16:30:34;7.50;1.50
827;DHT22;395;48.132;11.608;2023-02-15T16:33:06;7.40;1.30
827;DHT22;395;48.132;11.608;2023-02-15T16:35:32;7.30;1.20
827;DHT22;395;48.132;11.608;2023-02-15T16:37:58;7.20;1.20
827;DHT22;395;48.132;11.608;2023-02-15T16:43:01;7.10;1.60
827;DHT22;395;48.132;11.608;2023-02-15T16:45:27;7.00;2.30
827;DHT22;395;48.132;11.608;2023-02-15T16:47:57;7.00;2.30
827;DHT22;395;48.132;11.608;2023-02-15T16:50:30;6.80;2.20
827;DHT22;395;48.132;11.608;2023-02-15T16:52:57;6.80;2.20
827;DHT22;395;48.132;11.608;2023-02-15T16:55:25;6.70;2.10
827;DHT22;395;48.132;11.608;2023-02-15T16:57:56;6.70;2.10
827;DHT22;395;48.132;11.608;2023-02-15T17:00:25;6.60;2.10
827;DHT22;395;48.132;11.608;2023-02-15T17:02:59;6.60;2.20
827;DHT22;395;48.132;11.608;2023-02-15T17:08:18;6.50;2.90
827;DHT22;395;48.132;11.608;2023-02-15T17:11:01;6.40;3.10
827;DHT22;395;48.132;11.608;2023-02-15T17:13:28;6.40;3.30
827;DHT22;395;48.132;11.608;2023-02-15T17:20:55;6.30;3.70
827;DHT22;395;48.132;11.608;2023-02-15T17:23:29;6.20;3.80
827;DHT22;395;48.132;11.608;2023-02-15T17:25:57;6.20;3.90
827;DHT22;395;48.132;11.608;2023-02-15T17:28:30;6.10;3.90
827;DHT22;395;48.132;11.608;2023-02-15T17:30:57;6.10;3.90
827;DHT22;395;48.132;11.608;2023-02-15T17:33:41;6.10;4.00
827;DHT22;395;48.132;11.608;2023-02-15T17:36:40;6.00;3.90
827;DHT22;395;48.132;11.608;2023-02-15T17:39:19;6.00;4.30
827;DHT22;395;48.132;11.608;2023-02-15T17:41:45;5.90;4.40
827;DHT22;395;48.132;11.608;2023-02-15T17:44:13;6.00;5.00
827;DHT22;395;48.132;11.608;2023-02-15T17:46:41;5.90;5.40
827;DHT22;395;48.132;11.608;2023-02-15T17:49:07;5.90;5.50
827;DHT22;395;48.132;11.608;2023-02-15T17:51:36;5.80;5.80
827;DHT22;395;48.132;11.608;2023-02-15T17:54:02;5.80;6.10
827;DHT22;395;48.132;11.608;2023-02-15T17:57:12;5.80;6.30
827;DHT22;395;48.132;11.608;2023-02-15T17:59:38;5.80;6.40
827;DHT22;395;48.132;11.608;2023-02-15T18:02:22;5.80;6.60
827;DHT22;395;48.132;11.608;2023-02-15T18:05:16;5.80;6.70
827;DHT22;395;48.132;11.608;2023-02-15T18:08:00;5.80;6.90
827;DHT22;395;48.132;11.608;2023-02-15T18:10:44;5.70;7.10
827;DHT22;395;48.132;11.608;2023-02-15T18:13:29;5.70;7.10
827;DHT22;395;48.132;11.608;2023-02-15T18:15:54;5.80;7.20
827;DHT22;395;48.132;11.608;2023-02-15T18:18:21;5.70;7.00
827;DHT22;395;48.132;11.608;2023-02-15T18:20:47;5.80;6.90
827;DHT22;395;48.132;11.608;2023-02-15T18:23:15;5.70;7.10
827;DHT22;395;48.132;11.608;2023-02-15T18:25:41;5.70;7.30
827;DHT22;395;48.132;11.608;2023-02-15T18:28:10;5.70;7.10
827;DHT22;395;48.132;11.608;2023-02-15T18:30:39;5.70;6.80
827;DHT22;395;48.132;11.608;2023-02-15T18:33:28;5.60;6.70
827;DHT22;395;48.132;11.608;2023-02-15T18:35:55;5.60;6.70
827;DHT22;395;48.132;11.608;2023-02-15T18:38:21;5.60;6.70
827;DHT22;395;48.132;11.608;2023-02-15T18:40:46;5.50;6.70
827;DHT22;395;48.132;11.608;2023-02-15T18:43:14;5.60;6.70
827;DHT22;395;48.132;11.608;2023-02-15T18:45:40;5.60;6.70
827;DHT22;395;48.132;11.608;2023-02-15T18:48:06;5.50;6.70
827;DHT22;395;48.132;11.608;2023-02-15T18:50:36;5.50;6.90
827;DHT22;395;48.132;11.608;2023-02-15T18:53:04;5.50;7.10
827;DHT22;395;48.132;11.608;2023-02-15T18:55:31;5.50;7.40
827;DHT22;395;48.132;11.608;2023-02-15T18:58:00;5.40;7.40
827;DHT22;395;48.132;11.608;2023-02-15T19:00:31;5.40;7.40
827;DHT22;395;48.132;11.608;2023-02-15T19:02:58;5.40;7.40
827;DHT22;395;48.132;11.608;2023-02-15T19:05:25;5.40;7.50
827;DHT22;395;48.132;11.608;2023-02-15T19:07:55;5.40;7.60
827;DHT22;395;48.132;11.608;2023-02-15T19:10:23;5.40;7.70
827;DHT22;395;48.132;11.608;2023-02-15T19:12:49;5.40;7.70
827;DHT22;395;48.132;11.608;2023-02-15T19:15:17;5.40;7.80
827;DHT22;395;48.132;11.608;2023-02-15T19:17:43;5.40;7.70
827;DHT22;395;48.132;11.608;2023-02-15T19:20:22;5.40;7.70
827;DHT22;395;48.132;11.608;2023-02-15T19:22:49;5.40;7.50
827;DHT22;395;48.132;11.608;2023-02-15T19:25:27;5.40;7.30
827;DHT22;395;48.132;11.608;2023-02-15T19:27:53;5.40;7.10
827;DHT22;395;48.132;11.608;2023-02-15T19:32:48;5.30;6.90
827;DHT22;395;48.132;11.608;2023-02-15T19:35:15;5.30;6.80
827;DHT22;395;48.132;11.608;2023-02-15T19:37:43;5.30;6.90
827;DHT22;395;48.132;11.608;2023-02-15T19:40:22;5.40;6.90
827;DHT22;395;48.132;11.608;2023-02-15T19:42:49;5.30;6.70
827;DHT22;395;48.132;11.608;2023-02-15T19:45:23;5.30;6.70
827;DHT22;395;48.132;11.608;2023-02-15T19:47:50;5.30;6.50
827;DHT22;395;48.132;11.608;2023-02-15T19:50:24;5.30;6.50
827;DHT22;395;48.132;11.608;2023-02-15T19:52:51;5.30;6.50
827;DHT22;395;48.132;11.608;2023-02-15T19:55:24;5.30;6.60
827;DHT22;395;48.132;11.608;2023-02-15T19:57:50;5.30;6.70
827;DHT22;395;48.132;11.608;2023-02-15T20:00:19;5.30;7.00
827;DHT22;395;48.132;11.608;2023-02-15T20:02:45;5.30;7.10
827;DHT22;395;48.132;11.608;2023-02-15T20:05:11;5.20;7.10
827;DHT22;395;48.132;11.608;2023-02-15T20:07:37;5.20;7.20
827;DHT22;395;48.132;11.608;2023-02-15T20:10:08;5.30;7.30
827;DHT22;395;48.132;11.608;2023-02-15T20:12:34;5.30;7.20
827;DHT22;395;48.132;11.608;2023-02-15T20:15:00;5.30;7.30
827;DHT22;395;48.132;11.608;2023-02-15T20:17:25;5.30;7.30
827;DHT22;395;48.132;11.608;2023-02-15T20:19:51;5.30;7.30
827;DHT22;395;48.132;11.608;2023-02-15T20:22:22;5.30;7.40
827;DHT22;395;48.132;11.608;2023-02-15T20:24:49;5.30;7.30
827;DHT22;395;48.132;11.608;2023-02-15T20:27:18;5.20;7.30
827;DHT22;395;48.132;11.608;2023-02-15T20:29:44;5.30;7.40
827;DHT22;395;48.132;11.608;2023-02-15T20:32:10;5.30;7.40
827;DHT22;395;48.132;11.608;2023-02-15T20:34:37;5.30;7.50
827;DHT22;395;48.132;11.608;2023-02-15T20:37:04;5.20;7.40
827;DHT22;395;48.132;11.608;2023-02-15T20:39:30;5.30;7.40